Тейково-65

Карта отелей и гостиниц, располагающихся рядом с аэропортом Тейково-65 :

Тейково-65 Ивановская область 56° 41' 24.8316" N, 40° 12' 23.04" E
Код аэродрома ИКАО
HH3N
Код аэродрома RU
ХХ3Н
Координаты
N56.69023° E040.20640°
Превышение над уровнем моря
130
Основная полоса
Курс магнитный
Длина основной ВПП
Ширина основной ВПП
Покрытие основной ВПП
Освещение ВПП
Тип: 
Вертодром
Класс аэродрома: 
Принадлежность: 
МО
Статус: 
Недействующий
Сайт: 
E-mail аэродрома: 
Страна: 
Россия
Регион: 
Ивановская область
Город: 
Дополнительная информация: 
Оператор: 54-я Гв. РД РВСН.

Найти трансфер

С помощью этой формы Вы можете найти трансфер из аэропорта Тейково-65 в город, аэропорт или вокзал:

Погода в аэропортах:

Авиационная погода в Кокшетау

Регион: 
Погода METAR: 
UACK 221200Z 03001MPS 6000 -SG BKN002 M16/M18 Q1028 TEMPO BKN003 RMK QBB070 QFE747/0997
Время наблюдения
2022-01-22T12:00:00Z
Температура C
-16.0
Точка росы
-18.0
Направление ветра
30
Скорость ветра (узлы)
2
Метео видимость
3.73
Облачность
BKN
Нижняя граница облачности (футы)
200
Явления погоды
-SG
Условия полета
LIFR
Аэропорт подробнее: 
BKN – значительная (рассеянная, разорванная) облачность;
SG - снежные зёрна;

Авиационная погода в Москва - Домодедово

Погода METAR: 
UUDD 221800Z 10003MPS 1400 1100S R14R/P2000U R14C/P2000D SN SCT008 M04/M06 Q1011 R14R/590335 R14C/590337 TEMPO 1200 SHSN SCT011CB
Время наблюдения
2022-01-22T18:00:00Z
Температура C
-4.0
Точка росы
-6.0
Направление ветра
100
Скорость ветра (узлы)
6
Метео видимость
0.87
Облачность
SCT
Нижняя граница облачности (футы)
800
Явления погоды
SN
Условия полета
LIFR
Аэропорт подробнее: 
SCT – разбросанная отдельная облачность;
SN – снег;

Авиационная погода в Сочи

Регион: 
Погода METAR: 
URSS 221800Z 03005MPS 9999 -SHRA OVC039CB 04/03 Q1010 R02/290060 R06/290060 NOSIG RMK R06/06004MPS MT OBSC QFE756
Время наблюдения
2022-01-22T18:00:00Z
Температура C
4.0
Точка росы
3.0
Направление ветра
30
Скорость ветра (узлы)
10
Метео видимость
6.21
Облачность
OVC
Нижняя граница облачности (футы)
3900
Явления погоды
-SHRA
Условия полета
VFR
Аэропорт подробнее: 
OVC – сплошная облачность;
-SHRA - слабый ливневой дождь;

Авиационная погода в Перми

Регион: 
Погода METAR: 
USPP 221800Z 11003MPS 5000 -SN BR OVC015 M15/M17 Q1029 R21/090060 NOSIG RMK QFE760
Время наблюдения
2022-01-22T18:00:00Z
Температура C
-15.0
Точка росы
-17.0
Направление ветра
110
Скорость ветра (узлы)
6
Метео видимость
3.11
Облачность
OVC
Нижняя граница облачности (футы)
1500
Явления погоды
-SN BR
Условия полета
MVFR
Аэропорт подробнее: 
OVC – сплошная облачность;
-SN – слабый снег; BR – дымка (видимость от 1 до 9 км);